createdAt,value
2022-11-16T00:00:36.179Z,86.66
2022-11-16T00:04:00.947Z,87.18
2022-11-16T00:07:23.081Z,87.32
2022-11-16T00:10:45.179Z,87.89
2022-11-16T00:14:09.137Z,87.94
2022-11-16T00:17:31.252Z,87.62
2022-11-16T00:20:53.510Z,87.49
2022-11-16T00:24:16.648Z,87.73
2022-11-16T00:27:38.566Z,87.59
2022-11-16T00:31:03.197Z,88.19
2022-11-16T00:34:26.065Z,86.51
2022-11-16T00:37:48.062Z,86.60
2022-11-16T00:41:10.721Z,86.88
2022-11-16T00:44:33.095Z,86.23
2022-11-16T00:48:00.425Z,86.76
2022-11-16T00:51:22.625Z,86.63
2022-11-16T00:54:44.415Z,86.57
2022-11-16T00:58:06.796Z,86.72
2022-11-16T01:01:29.077Z,86.70
2022-11-16T01:04:52.582Z,86.35
2022-11-16T01:08:14.998Z,85.76
2022-11-16T01:11:54.397Z,85.18
2022-11-16T01:15:17.992Z,85.32
2022-11-16T01:18:40.097Z,84.99
2022-11-16T01:22:03.829Z,84.98
2022-11-16T01:25:26.110Z,85.00
2022-11-16T01:28:48.039Z,85.23
2022-11-16T01:32:10.596Z,85.57
2022-11-16T01:35:32.523Z,85.58
2022-11-16T01:38:56.092Z,85.73
2022-11-16T01:42:19.870Z,85.30
2022-11-16T01:45:43.277Z,85.74
2022-11-16T01:49:08.353Z,85.23
2022-11-16T01:52:34.210Z,85.59
2022-11-16T01:55:57.543Z,85.37
2022-11-16T01:59:20.236Z,85.51
2022-11-16T02:02:43.157Z,85.03
2022-11-16T02:06:35.491Z,84.81
2022-11-16T02:10:10.813Z,85.22
2022-11-16T02:13:45.651Z,85.49
2022-11-16T02:17:18.026Z,85.66
2022-11-16T02:21:09.683Z,85.06
2022-11-16T02:24:44.888Z,85.62
2022-11-16T02:28:28.601Z,85.29
2022-11-16T02:31:59.529Z,84.93
2022-11-16T02:35:28.494Z,84.43
2022-11-16T02:38:55.798Z,85.24
2022-11-16T02:42:23.087Z,85.27
2022-11-16T02:45:50.220Z,84.28
2022-11-16T02:49:18.964Z,85.23
2022-11-16T02:52:41.157Z,83.96
2022-11-16T02:56:02.869Z,83.96
2022-11-16T02:59:37.337Z,84.04
2022-11-16T03:03:12.316Z,84.25
2022-11-16T03:06:41.726Z,84.25
2022-11-16T03:10:03.975Z,85.14
2022-11-16T03:13:27.484Z,85.14
2022-11-16T03:16:52.613Z,85.96
2022-11-16T03:20:17.767Z,86.60
2022-11-16T03:23:41.472Z,86.87
2022-11-16T03:27:10.066Z,86.95
2022-11-16T03:30:35.397Z,88.09
2022-11-16T03:34:01.888Z,88.56
2022-11-16T03:37:25.507Z,89.05
2022-11-16T03:40:51.434Z,89.39
2022-11-16T03:44:16.176Z,90.10
2022-11-16T03:47:38.058Z,90.14
2022-11-16T03:51:00.313Z,90.82
2022-11-16T03:54:22.123Z,91.30
2022-11-16T03:57:45.431Z,91.74
2022-11-16T04:01:07.660Z,91.97
2022-11-16T04:04:46.954Z,92.19
2022-11-16T04:08:30.687Z,91.88
2022-11-16T04:12:10.144Z,92.15
2022-11-16T04:15:50.634Z,92.63
2022-11-16T04:19:29.794Z,92.53
2022-11-16T04:23:13.512Z,92.52
2022-11-16T04:26:50.319Z,92.45
2022-11-16T04:30:13.070Z,92.58
2022-11-16T04:34:04.961Z,92.81
2022-11-16T04:37:44.149Z,93.07
2022-11-16T04:41:28.998Z,93.39
2022-11-16T04:45:08.283Z,93.68
2022-11-16T04:48:30.336Z,93.63
2022-11-16T04:51:53.583Z,93.79
2022-11-16T04:55:15.741Z,93.76
2022-11-16T04:58:37.595Z,94.03
2022-11-16T05:02:11.734Z,94.04
2022-11-16T05:05:33.240Z,94.00
2022-11-16T05:08:56.242Z,94.26
2022-11-16T05:12:19.995Z,94.42
2022-11-16T05:15:42.070Z,94.43
2022-11-16T05:19:21.376Z,94.70
2022-11-16T05:22:43.600Z,94.77
2022-11-16T05:26:07.252Z,94.89
2022-11-16T05:29:32.232Z,95.33
2022-11-16T05:32:54.077Z,95.38
2022-11-16T05:36:16.178Z,95.69
2022-11-16T05:39:39.192Z,95.64
2022-11-16T05:43:02.946Z,95.89
2022-11-16T05:46:25.814Z,96.13
2022-11-16T05:49:47.610Z,96.04
2022-11-16T05:53:09.715Z,96.13
2022-11-16T05:56:32.032Z,96.27
2022-11-16T05:59:55.306Z,96.30
2022-11-16T06:03:17.172Z,95.63
2022-11-16T06:06:39.539Z,95.39
2022-11-16T06:10:01.658Z,95.88
2022-11-16T06:13:24.106Z,95.87
2022-11-16T06:16:47.414Z,96.23
2022-11-16T06:20:10.343Z,96.36
2022-11-16T06:23:32.024Z,96.47
2022-11-16T06:26:54.161Z,96.07
2022-11-16T06:30:16.983Z,95.77
2022-11-16T06:33:40.086Z,95.90
2022-11-16T06:37:02.137Z,95.82
2022-11-16T06:40:23.994Z,95.42
2022-11-16T06:43:46.026Z,95.88
2022-11-16T06:47:07.966Z,95.93
2022-11-16T06:50:30.991Z,96.38
2022-11-16T06:53:52.790Z,96.36
2022-11-16T06:57:14.570Z,96.41
2022-11-16T07:00:36.670Z,96.36
2022-11-16T07:03:58.801Z,96.35
2022-11-16T07:07:22.289Z,96.14
2022-11-16T07:10:44.399Z,95.78
2022-11-16T07:14:06.055Z,95.61
2022-11-16T07:17:28.313Z,95.49
2022-11-16T07:20:50.390Z,96.09
2022-11-16T07:24:14.020Z,95.94
2022-11-16T07:27:36.247Z,96.08
2022-11-16T07:31:02.812Z,95.86
2022-11-16T07:34:24.698Z,96.21
2022-11-16T07:37:46.763Z,96.25
2022-11-16T07:41:12.426Z,96.15
2022-11-16T07:44:34.293Z,96.32
2022-11-16T07:47:56.371Z,95.39
2022-11-16T07:51:19.722Z,95.39
2022-11-16T07:54:41.798Z,95.35
2022-11-16T07:58:05.363Z,94.74
2022-11-16T08:01:26.934Z,94.58
2022-11-16T08:04:49.096Z,94.03
2022-11-16T08:08:10.725Z,94.10
2022-11-16T08:11:32.669Z,94.44
2022-11-16T08:14:56.126Z,93.99
2022-11-16T08:18:17.818Z,94.02
2022-11-16T08:21:39.767Z,93.51
2022-11-16T08:25:02.258Z,93.54
2022-11-16T08:28:24.362Z,93.64
2022-11-16T08:31:48.360Z,91.70
2022-11-16T08:35:10.617Z,92.58
2022-11-16T08:38:32.935Z,91.51
2022-11-16T08:41:54.785Z,91.19
2022-11-16T08:45:17.956Z,91.47
2022-11-16T08:48:41.535Z,90.28
2022-11-16T08:52:03.701Z,90.76
2022-11-16T08:55:28.379Z,89.71
2022-11-16T08:58:55.275Z,89.55
2022-11-16T09:02:25.511Z,88.54
2022-11-16T09:05:48.905Z,88.94
2022-11-16T09:09:10.904Z,88.67
2022-11-16T09:12:33.005Z,89.09
2022-11-16T09:15:58.786Z,89.91
2022-11-16T09:19:21.120Z,88.50
2022-11-16T09:22:44.447Z,86.55
2022-11-16T09:26:07.344Z,86.77
2022-11-16T09:29:29.222Z,86.49
2022-11-16T09:32:51.343Z,85.79
2022-11-16T09:36:13.327Z,86.07
2022-11-16T09:39:38.347Z,84.85
2022-11-16T09:43:07.986Z,84.31
2022-11-16T09:46:32.976Z,82.47
2022-11-16T09:50:02.718Z,82.34
2022-11-16T09:53:32.870Z,80.62
2022-11-16T09:57:01.291Z,82.87
2022-11-16T10:00:27.012Z,85.01
2022-11-16T10:03:53.858Z,86.50
2022-11-16T10:07:18.199Z,87.55
2022-11-16T10:10:45.831Z,88.12
2022-11-16T10:14:25.817Z,88.04
2022-11-16T10:18:07.576Z,88.95
2022-11-16T10:21:45.588Z,88.63
2022-11-16T10:25:16.656Z,88.41
2022-11-16T10:29:06.223Z,88.57
2022-11-16T10:32:37.498Z,88.41
2022-11-16T10:36:00.432Z,88.35
2022-11-16T10:39:23.702Z,87.41
2022-11-16T10:42:49.424Z,86.82
2022-11-16T10:46:18.934Z,86.45
2022-11-16T10:49:51.220Z,87.15
2022-11-16T10:53:16.221Z,86.16
2022-11-16T10:56:40.213Z,85.89
2022-11-16T11:00:35.369Z,86.09
2022-11-16T11:03:58.493Z,86.04
2022-11-16T11:07:32.836Z,86.09
2022-11-16T12:57:49.251Z,77.17
2022-11-16T13:01:19.173Z,79.10
2022-11-16T13:04:46.544Z,79.77
2022-11-16T13:08:16.187Z,80.16
2022-11-16T13:11:40.984Z,80.24
2022-11-16T13:15:06.200Z,80.47
2022-11-16T13:18:30.555Z,81.08
2022-11-16T13:21:59.991Z,81.55
2022-11-16T13:25:25.814Z,81.97
2022-11-16T13:28:56.370Z,82.47
2022-11-16T13:32:26.456Z,82.90
2022-11-16T13:35:48.548Z,82.96
2022-11-16T13:39:21.465Z,83.18
2022-11-16T13:42:58.677Z,83.28
2022-11-16T13:46:48.798Z,83.48
2022-11-16T13:50:05.806Z,83.86
2022-11-16T13:57:24.729Z,83.33
2022-11-16T14:00:57.843Z,83.36
2022-11-16T14:04:57.009Z,83.34
2022-11-16T14:08:54.726Z,82.84
2022-11-16T14:12:56.118Z,82.91
2022-11-16T14:16:48.428Z,82.70
2022-11-16T14:20:17.147Z,82.96
2022-11-16T14:24:10.285Z,82.62
2022-11-16T14:27:40.031Z,83.14
2022-11-16T14:31:11.224Z,83.02
2022-11-16T14:34:43.326Z,83.27
2022-11-16T14:38:08.771Z,83.55
2022-11-16T14:41:30.854Z,83.49
2022-11-16T14:45:01.858Z,83.19
2022-11-16T14:48:26.275Z,83.01
2022-11-16T14:51:55.075Z,83.91
2022-11-16T14:55:20.834Z,83.60
2022-11-16T14:58:52.318Z,83.64
2022-11-16T15:02:19.209Z,83.14
2022-11-16T15:05:41.496Z,83.42
2022-11-16T15:09:06.759Z,83.59
2022-11-16T15:12:46.043Z,82.87
2022-11-16T15:16:11.788Z,82.29
2022-11-16T15:19:33.564Z,82.62
2022-11-16T15:22:58.279Z,83.04
2022-11-16T15:26:23.475Z,82.97
2022-11-16T15:29:45.315Z,83.05
2022-11-16T15:33:11.803Z,83.08
2022-11-16T15:36:40.160Z,82.61
2022-11-16T15:40:03.549Z,82.91
2022-11-16T15:43:32.727Z,82.91
2022-11-16T15:46:57.481Z,82.76
2022-11-16T15:50:20.044Z,82.38
2022-11-16T15:53:43.568Z,82.19
2022-11-16T15:57:09.752Z,82.67
2022-11-16T16:00:36.557Z,82.42
2022-11-16T16:04:01.660Z,82.19
2022-11-16T16:07:39.856Z,82.50
2022-11-16T16:11:09.910Z,82.83
2022-11-16T16:14:32.192Z,80.55
2022-11-16T16:17:56.167Z,81.45
2022-11-16T16:21:18.939Z,82.20
2022-11-16T16:24:44.556Z,82.00
2022-11-16T16:28:07.517Z,82.30
2022-11-16T21:21:45.963Z,76.05
2022-11-16T21:25:08.553Z,76.43
2022-11-16T21:28:30.636Z,76.18
2022-11-16T21:31:52.398Z,76.63
2022-11-16T21:35:14.876Z,76.76
2022-11-16T21:38:38.696Z,77.05
2022-11-16T21:42:00.823Z,76.65
2022-11-16T21:45:22.860Z,75.77
2022-11-16T21:48:47.322Z,75.33
2022-11-16T21:52:09.224Z,76.02
2022-11-16T21:55:35.533Z,75.60
2022-11-16T21:58:57.290Z,76.61
2022-11-16T22:02:19.074Z,77.08
2022-11-16T22:05:59.045Z,76.90
2022-11-16T22:09:20.639Z,75.28
2022-11-16T22:12:44.273Z,76.47
2022-11-16T22:16:07.949Z,76.98
2022-11-16T22:19:30.171Z,76.62
2022-11-16T22:22:52.336Z,76.76
2022-11-16T22:26:15.172Z,76.63
2022-11-16T22:29:38.788Z,76.95
2022-11-16T22:33:00.859Z,76.08
2022-11-16T22:36:22.996Z,76.35
2022-11-16T22:39:48.229Z,75.82
2022-11-16T22:43:10.527Z,76.00
2022-11-16T22:46:34.024Z,76.34
2022-11-16T22:49:55.872Z,76.61
2022-11-16T22:53:18.095Z,76.49
2022-11-16T22:56:40.541Z,75.91
2022-11-16T23:00:03.183Z,75.83
2022-11-16T23:03:26.751Z,76.04
2022-11-16T23:06:49.494Z,76.59
2022-11-16T23:10:11.915Z,76.49
2022-11-16T23:13:59.755Z,76.82
2022-11-16T23:17:22.096Z,75.90
2022-11-16T23:21:03.555Z,76.17
2022-11-16T23:24:43.337Z,75.37
2022-11-16T23:28:08.183Z,75.75
2022-11-16T23:31:30.183Z,76.10
2022-11-16T23:34:52.322Z,76.12
2022-11-16T23:38:16.043Z,76.25
2022-11-16T23:41:57.719Z,76.00
2022-11-16T23:45:20.710Z,75.55
2022-11-16T23:48:42.775Z,75.77
2022-11-16T23:52:05.703Z,75.85
2022-11-16T23:55:29.559Z,75.89
2022-11-16T23:58:51.364Z,76.30
